sensor_id;sensor_type;location;lat;lon;timestamp;pressure;altitude;pressure_sealevel;temperature;humidity
23172;BME280;11754;42.664;23.594;2023-01-30T00:00:57;95703.09;;;1.55;70.69
23172;BME280;11754;42.664;23.594;2023-01-30T00:03:23;95693.31;;;1.46;70.49
23172;BME280;11754;42.664;23.594;2023-01-30T00:05:49;95698.09;;;1.39;70.41
23172;BME280;11754;42.664;23.594;2023-01-30T00:08:15;95693.72;;;1.40;70.62
23172;BME280;11754;42.664;23.594;2023-01-30T00:10:41;95697.06;;;1.42;71.06
23172;BME280;11754;42.664;23.594;2023-01-30T00:13:07;95693.31;;;1.46;70.79
23172;BME280;11754;42.664;23.594;2023-01-30T00:15:32;95685.63;;;1.44;70.55
23172;BME280;11754;42.664;23.594;2023-01-30T00:17:57;95686.84;;;1.39;70.87
23172;BME280;11754;42.664;23.594;2023-01-30T00:20:23;95689.25;;;1.42;70.73
23172;BME280;11754;42.664;23.594;2023-01-30T00:22:48;95697.47;;;1.36;70.40
23172;BME280;11754;42.664;23.594;2023-01-30T00:25:13;95696.44;;;1.38;70.11
23172;BME280;11754;42.664;23.594;2023-01-30T00:27:39;95692.66;;;1.30;69.92
23172;BME280;11754;42.664;23.594;2023-01-30T00:30:04;95700.59;;;1.28;70.08
23172;BME280;11754;42.664;23.594;2023-01-30T00:32:31;95693.53;;;1.30;70.32
23172;BME280;11754;42.664;23.594;2023-01-30T00:34:57;95691.75;;;1.31;69.93
23172;BME280;11754;42.664;23.594;2023-01-30T00:37:22;95692.47;;;1.33;69.79
23172;BME280;11754;42.664;23.594;2023-01-30T00:39:47;95689.34;;;1.40;69.95
23172;BME280;11754;42.664;23.594;2023-01-30T00:42:13;95686.25;;;1.48;69.41
23172;BME280;11754;42.664;23.594;2023-01-30T00:44:57;95684.34;;;1.50;69.58
23172;BME280;11754;42.664;23.594;2023-01-30T00:47:40;95677.09;;;1.55;68.84
23172;BME280;11754;42.664;23.594;2023-01-30T00:50:06;95677.50;;;1.49;69.18
23172;BME280;11754;42.664;23.594;2023-01-30T00:52:32;95679.47;;;1.46;68.97
23172;BME280;11754;42.664;23.594;2023-01-30T00:54:57;95680.00;;;1.38;68.62
23172;BME280;11754;42.664;23.594;2023-01-30T00:57:23;95685.22;;;1.38;68.75
23172;BME280;11754;42.664;23.594;2023-01-30T00:59:48;95671.88;;;1.42;68.51
23172;BME280;11754;42.664;23.594;2023-01-30T01:02:13;95680.31;;;1.46;68.21
23172;BME280;11754;42.664;23.594;2023-01-30T01:04:39;95681.75;;;1.50;67.98
23172;BME280;11754;42.664;23.594;2023-01-30T01:07:08;95671.06;;;1.42;67.55
23172;BME280;11754;42.664;23.594;2023-01-30T01:09:34;95684.13;;;1.40;67.83
23172;BME280;11754;42.664;23.594;2023-01-30T01:11:59;95682.06;;;1.46;67.92
23172;BME280;11754;42.664;23.594;2023-01-30T01:14:25;95672.22;;;1.38;67.60
23172;BME280;11754;42.664;23.594;2023-01-30T01:16:50;95674.47;;;1.42;67.75
23172;BME280;11754;42.664;23.594;2023-01-30T01:19:15;95672.09;;;1.39;67.46
23172;BME280;11754;42.664;23.594;2023-01-30T01:21:41;95669.28;;;1.42;67.46
23172;BME280;11754;42.664;23.594;2023-01-30T01:24:11;95665.03;;;1.41;66.83
23172;BME280;11754;42.664;23.594;2023-01-30T01:26:37;95667.50;;;1.43;67.06
23172;BME280;11754;42.664;23.594;2023-01-30T01:29:02;95671.69;;;1.46;66.83
23172;BME280;11754;42.664;23.594;2023-01-30T01:31:28;95671.25;;;1.52;67.12
23172;BME280;11754;42.664;23.594;2023-01-30T01:33:53;95673.63;;;1.55;67.32
23172;BME280;11754;42.664;23.594;2023-01-30T01:36:18;95663.75;;;1.47;66.67
23172;BME280;11754;42.664;23.594;2023-01-30T01:38:44;95668.97;;;1.47;67.10
23172;BME280;11754;42.664;23.594;2023-01-30T01:41:11;95676.66;;;1.49;67.19
23172;BME280;11754;42.664;23.594;2023-01-30T01:43:57;95660.66;;;1.29;67.03
23172;BME280;11754;42.664;23.594;2023-01-30T01:46:27;95667.44;;;1.44;67.37
23172;BME280;11754;42.664;23.594;2023-01-30T01:48:55;95671.06;;;1.42;66.98
23172;BME280;11754;42.664;23.594;2023-01-30T01:51:40;95678.94;;;1.40;67.03
23172;BME280;11754;42.664;23.594;2023-01-30T01:54:08;95671.16;;;1.40;67.14
23172;BME280;11754;42.664;23.594;2023-01-30T01:56:34;95671.47;;;1.36;67.38
23172;BME280;11754;42.664;23.594;2023-01-30T01:59:08;95667.50;;;1.43;67.36
23172;BME280;11754;42.664;23.594;2023-01-30T02:01:36;95674.59;;;1.41;67.35
23172;BME280;11754;42.664;23.594;2023-01-30T02:04:03;95668.47;;;1.42;67.35
23172;BME280;11754;42.664;23.594;2023-01-30T02:06:30;95670.22;;;1.41;67.03
23172;BME280;11754;42.664;23.594;2023-01-30T02:09:03;95664.41;;;1.38;66.73
23172;BME280;11754;42.664;23.594;2023-01-30T02:11:45;95667.72;;;1.40;66.97
23172;BME280;11754;42.664;23.594;2023-01-30T02:14:13;95660.88;;;1.39;66.91
23172;BME280;11754;42.664;23.594;2023-01-30T02:16:38;95664.22;;;1.41;66.94
23172;BME280;11754;42.664;23.594;2023-01-30T02:24:39;95659.91;;;1.40;66.44
23172;BME280;11754;42.664;23.594;2023-01-30T02:32:20;95654.81;;;1.51;66.63
23172;BME280;11754;42.664;23.594;2023-01-30T02:34:57;95647.97;;;1.50;66.69
23172;BME280;11754;42.664;23.594;2023-01-30T02:37:28;95650.84;;;1.58;66.75
23172;BME280;11754;42.664;23.594;2023-01-30T02:45:41;95627.16;;;1.50;66.33
23172;BME280;11754;42.664;23.594;2023-01-30T02:48:35;95627.38;;;1.47;66.28
23172;BME280;11754;42.664;23.594;2023-01-30T02:51:10;95628.59;;;1.54;66.04
23172;BME280;11754;42.664;23.594;2023-01-30T02:53:38;95631.19;;;1.54;65.97
23172;BME280;11754;42.664;23.594;2023-01-30T02:56:03;95625.78;;;1.57;65.88
23172;BME280;11754;42.664;23.594;2023-01-30T02:58:32;95618.66;;;1.48;66.10
23172;BME280;11754;42.664;23.594;2023-01-30T03:14:48;95612.84;;;1.44;65.50
23172;BME280;11754;42.664;23.594;2023-01-30T03:17:18;95602.47;;;1.32;65.77
23172;BME280;11754;42.664;23.594;2023-01-30T03:19:45;95605.34;;;1.40;66.27
23172;BME280;11754;42.664;23.594;2023-01-30T03:22:11;95605.34;;;1.40;65.75
23172;BME280;11754;42.664;23.594;2023-01-30T03:24:36;95606.50;;;1.36;65.65
23172;BME280;11754;42.664;23.594;2023-01-30T03:27:08;95598.81;;;1.34;65.50
23172;BME280;11754;42.664;23.594;2023-01-30T03:29:34;95590.19;;;1.34;65.39
23172;BME280;11754;42.664;23.594;2023-01-30T03:32:00;95600.34;;;1.37;65.13
23172;BME280;11754;42.664;23.594;2023-01-30T03:34:25;95597.75;;;1.37;65.13
23172;BME280;11754;42.664;23.594;2023-01-30T03:36:51;95591.31;;;1.30;65.74
23172;BME280;11754;42.664;23.594;2023-01-30T03:39:16;95585.41;;;1.28;65.83
23172;BME280;11754;42.664;23.594;2023-01-30T03:41:42;95587.28;;;1.26;65.61
23172;BME280;11754;42.664;23.594;2023-01-30T03:44:07;95587.50;;;1.23;65.74
23172;BME280;11754;42.664;23.594;2023-01-30T03:46:33;95591.25;;;1.18;65.98
23172;BME280;11754;42.664;23.594;2023-01-30T03:48:58;95586.66;;;1.22;65.91
23172;BME280;11754;42.664;23.594;2023-01-30T03:51:23;95596.22;;;1.22;66.00
23172;BME280;11754;42.664;23.594;2023-01-30T03:53:49;95599.97;;;1.17;65.97
23172;BME280;11754;42.664;23.594;2023-01-30T03:56:14;95595.31;;;1.10;66.44
23172;BME280;11754;42.664;23.594;2023-01-30T03:58:39;95601.34;;;1.10;66.13
23172;BME280;11754;42.664;23.594;2023-01-30T04:01:05;95595.66;;;1.05;66.46
23172;BME280;11754;42.664;23.594;2023-01-30T04:03:32;95600.63;;;1.08;66.57
23172;BME280;11754;42.664;23.594;2023-01-30T04:05:57;95600.19;;;1.14;66.77
23172;BME280;11754;42.664;23.594;2023-01-30T04:08:22;95593.75;;;1.07;66.97
23172;BME280;11754;42.664;23.594;2023-01-30T04:10:48;95590.00;;;1.11;67.29
23172;BME280;11754;42.664;23.594;2023-01-30T04:13:13;95594.50;;;1.09;67.43
23172;BME280;11754;42.664;23.594;2023-01-30T04:15:38;95587.31;;;1.00;68.03
23172;BME280;11754;42.664;23.594;2023-01-30T04:18:04;95583.81;;;1.01;67.94
23172;BME280;11754;42.664;23.594;2023-01-30T04:20:29;95596.88;;;1.12;68.09
23172;BME280;11754;42.664;23.594;2023-01-30T04:22:54;95596.22;;;1.22;67.96
23172;BME280;11754;42.664;23.594;2023-01-30T04:25:20;95587.72;;;1.19;67.71
23172;BME280;11754;42.664;23.594;2023-01-30T04:27:46;95587.41;;;1.11;66.83
23172;BME280;11754;42.664;23.594;2023-01-30T04:30:11;95593.53;;;1.10;67.37
23172;BME280;11754;42.664;23.594;2023-01-30T04:32:37;95588.47;;;0.96;67.10
23172;BME280;11754;42.664;23.594;2023-01-30T04:35:02;95600.09;;;1.03;67.43
23172;BME280;11754;42.664;23.594;2023-01-30T04:37:28;95592.09;;;1.06;67.03
23172;BME280;11754;42.664;23.594;2023-01-30T04:39:53;95587.94;;;1.16;67.54
23172;BME280;11754;42.664;23.594;2023-01-30T04:42:19;95581.50;;;1.09;67.26
23172;BME280;11754;42.664;23.594;2023-01-30T04:44:44;95588.56;;;1.07;67.32
23172;BME280;11754;42.664;23.594;2023-01-30T04:47:09;95585.97;;;1.07;67.64
23172;BME280;11754;42.664;23.594;2023-01-30T04:49:35;95566.31;;;1.03;68.21
23172;BME280;11754;42.664;23.594;2023-01-30T04:52:00;95574.88;;;1.05;68.20
23172;BME280;11754;42.664;23.594;2023-01-30T04:54:25;95580.06;;;0.92;68.36
23172;BME280;11754;42.664;23.594;2023-01-30T04:56:51;95564.88;;;0.99;68.57
23172;BME280;11754;42.664;23.594;2023-01-30T04:59:16;95569.22;;;1.11;69.04
23172;BME280;11754;42.664;23.594;2023-01-30T05:01:42;95564.09;;;1.23;68.66
23172;BME280;11754;42.664;23.594;2023-01-30T05:04:07;95566.22;;;1.17;68.77
23172;BME280;11754;42.664;23.594;2023-01-30T05:06:34;95574.81;;;1.18;68.76
23172;BME280;11754;42.664;23.594;2023-01-30T05:08:59;95570.28;;;1.09;68.45
23172;BME280;11754;42.664;23.594;2023-01-30T05:11:26;95563.81;;;1.14;68.57
23172;BME280;11754;42.664;23.594;2023-01-30T05:13:53;95566.94;;;1.19;68.78
23172;BME280;11754;42.664;23.594;2023-01-30T05:16:20;95571.69;;;1.26;69.04
23172;BME280;11754;42.664;23.594;2023-01-30T05:18:45;95563.50;;;1.19;68.54
23172;BME280;11754;42.664;23.594;2023-01-30T05:21:13;95576.47;;;1.19;68.27
23172;BME280;11754;42.664;23.594;2023-01-30T05:23:39;95579.06;;;1.19;68.39
23172;BME280;11754;42.664;23.594;2023-01-30T05:26:05;95581.28;;;1.12;68.46
23172;BME280;11754;42.664;23.594;2023-01-30T05:28:31;95584.44;;;1.05;68.74
23172;BME280;11754;42.664;23.594;2023-01-30T05:31:01;95577.97;;;1.10;68.97
23172;BME280;11754;42.664;23.594;2023-01-30T05:33:27;95580.25;;;1.02;68.85
23172;BME280;11754;42.664;23.594;2023-01-30T05:35:52;95576.22;;;0.98;68.70
23172;BME280;11754;42.664;23.594;2023-01-30T05:38:18;95579.03;;;0.95;68.79
23172;BME280;11754;42.664;23.594;2023-01-30T05:40:43;95580.06;;;0.80;70.16
23172;BME280;11754;42.664;23.594;2023-01-30T05:43:08;95580.91;;;0.80;70.83
23172;BME280;11754;42.664;23.594;2023-01-30T05:45:35;95581.94;;;0.90;70.17
23172;BME280;11754;42.664;23.594;2023-01-30T05:48:00;95586.59;;;0.98;69.82
23172;BME280;11754;42.664;23.594;2023-01-30T05:50:26;95591.28;;;1.06;69.51
23172;BME280;11754;42.664;23.594;2023-01-30T05:52:51;95578.91;;;1.09;69.36
23172;BME280;11754;42.664;23.594;2023-01-30T05:55:16;95587.81;;;1.18;68.49
23172;BME280;11754;42.664;23.594;2023-01-30T05:57:44;95589.59;;;1.17;67.75
23172;BME280;11754;42.664;23.594;2023-01-30T06:00:10;95591.78;;;1.11;67.61
23172;BME280;11754;42.664;23.594;2023-01-30T06:02:36;95590.47;;;0.80;69.00
23172;BME280;11754;42.664;23.594;2023-01-30T06:05:01;95593.47;;;0.74;69.33
23172;BME280;11754;42.664;23.594;2023-01-30T06:07:27;95593.56;;;0.85;69.41
23172;BME280;11754;42.664;23.594;2023-01-30T06:09:52;95596.66;;;0.90;69.33
23172;BME280;11754;42.664;23.594;2023-01-30T06:12:17;95588.88;;;0.90;69.02
23172;BME280;11754;42.664;23.594;2023-01-30T06:14:43;95587.63;;;0.95;69.43
23172;BME280;11754;42.664;23.594;2023-01-30T06:17:08;95590.84;;;0.99;69.75
23172;BME280;11754;42.664;23.594;2023-01-30T06:19:33;95587.53;;;1.10;69.95
23172;BME280;11754;42.664;23.594;2023-01-30T06:21:59;95592.41;;;1.14;69.00
23172;BME280;11754;42.664;23.594;2023-01-30T06:24:28;95586.69;;;1.09;69.08
23172;BME280;11754;42.664;23.594;2023-01-30T06:26:53;95585.44;;;1.15;69.00
23172;BME280;11754;42.664;23.594;2023-01-30T06:29:19;95585.84;;;1.22;69.04
23172;BME280;11754;42.664;23.594;2023-01-30T06:31:44;95572.75;;;1.23;68.56
23172;BME280;11754;42.664;23.594;2023-01-30T06:34:10;95585.22;;;1.31;67.98
23172;BME280;11754;42.664;23.594;2023-01-30T06:36:36;95586.53;;;1.36;67.48
23172;BME280;11754;42.664;23.594;2023-01-30T06:39:04;95584.34;;;1.43;66.81
23172;BME280;11754;42.664;23.594;2023-01-30T06:41:29;95581.31;;;1.49;66.96
23172;BME280;11754;42.664;23.594;2023-01-30T06:43:54;95582.03;;;1.51;65.95
23172;BME280;11754;42.664;23.594;2023-01-30T06:46:20;95593.91;;;1.55;65.32
23172;BME280;11754;42.664;23.594;2023-01-30T06:48:45;95586.09;;;1.55;65.82
23172;BME280;11754;42.664;23.594;2023-01-30T06:51:11;95586.78;;;1.57;66.12
23172;BME280;11754;42.664;23.594;2023-01-30T06:53:36;95591.06;;;1.58;66.34
23172;BME280;11754;42.664;23.594;2023-01-30T06:56:01;95601.75;;;1.66;66.34
23172;BME280;11754;42.664;23.594;2023-01-30T06:58:27;95596.97;;;1.73;66.46
23172;BME280;11754;42.664;23.594;2023-01-30T07:00:52;95603.41;;;1.67;65.27
23172;BME280;11754;42.664;23.594;2023-01-30T07:03:18;95601.22;;;1.74;65.58
23172;BME280;11754;42.664;23.594;2023-01-30T07:05:45;95603.06;;;1.72;65.64
23172;BME280;11754;42.664;23.594;2023-01-30T07:08:11;95594.84;;;1.78;65.64
23172;BME280;11754;42.664;23.594;2023-01-30T07:10:37;95602.31;;;1.83;64.89
23172;BME280;11754;42.664;23.594;2023-01-30T07:13:03;95603.03;;;1.85;64.60
23172;BME280;11754;42.664;23.594;2023-01-30T07:15:29;95600.88;;;1.79;64.66
23172;BME280;11754;42.664;23.594;2023-01-30T07:17:54;95596.69;;;1.89;64.09
23172;BME280;11754;42.664;23.594;2023-01-30T07:20:20;95596.25;;;1.95;64.12
23172;BME280;11754;42.664;23.594;2023-01-30T07:22:53;95601.88;;;1.89;63.72
23172;BME280;11754;42.664;23.594;2023-01-30T07:25:19;95601.16;;;1.87;64.14
23172;BME280;11754;42.664;23.594;2023-01-30T07:28:03;95602.31;;;1.83;64.05
23172;BME280;11754;42.664;23.594;2023-01-30T07:30:31;95598.16;;;1.80;63.42
23172;BME280;11754;42.664;23.594;2023-01-30T07:32:58;95600.13;;;1.77;64.17
23172;BME280;11754;42.664;23.594;2023-01-30T07:35:25;95605.19;;;1.91;64.19
23172;BME280;11754;42.664;23.594;2023-01-30T07:37:51;95611.59;;;1.98;63.46
23172;BME280;11754;42.664;23.594;2023-01-30T07:40:17;95601.19;;;1.98;63.08
23172;BME280;11754;42.664;23.594;2023-01-30T07:42:43;95607.88;;;2.02;62.92
23172;BME280;11754;42.664;23.594;2023-01-30T07:45:09;95603.59;;;2.01;63.18
23172;BME280;11754;42.664;23.594;2023-01-30T07:47:35;95589.16;;;1.97;63.83
23172;BME280;11754;42.664;23.594;2023-01-30T07:50:00;95602.31;;;2.07;64.60
23172;BME280;11754;42.664;23.594;2023-01-30T07:52:26;95592.47;;;1.99;64.33
23172;BME280;11754;42.664;23.594;2023-01-30T07:54:51;95587.06;;;2.02;64.66
23172;BME280;11754;42.664;23.594;2023-01-30T07:57:17;95606.06;;;2.27;64.31
23172;BME280;11754;42.664;23.594;2023-01-30T07:59:42;95603.72;;;2.24;64.00
23172;BME280;11754;42.664;23.594;2023-01-30T08:02:08;95586.72;;;2.31;63.67
23172;BME280;11754;42.664;23.594;2023-01-30T08:04:35;95579.00;;;2.29;63.50
23172;BME280;11754;42.664;23.594;2023-01-30T08:07:00;95580.81;;;2.40;62.94
23172;BME280;11754;42.664;23.594;2023-01-30T08:09:25;95574.25;;;2.34;62.92
23172;BME280;11754;42.664;23.594;2023-01-30T08:11:51;95589.47;;;2.52;63.16
23172;BME280;11754;42.664;23.594;2023-01-30T08:14:16;95574.31;;;2.46;62.71
23172;BME280;11754;42.664;23.594;2023-01-30T08:16:41;95587.47;;;2.55;62.42
23172;BME280;11754;42.664;23.594;2023-01-30T08:19:07;95582.75;;;2.49;62.53
23172;BME280;11754;42.664;23.594;2023-01-30T08:21:32;95574.94;;;2.49;62.84
23172;BME280;11754;42.664;23.594;2023-01-30T08:23:58;95577.25;;;2.41;63.11
23172;BME280;11754;42.664;23.594;2023-01-30T08:26:23;95575.59;;;2.40;63.32
23172;BME280;11754;42.664;23.594;2023-01-30T08:28:49;95565.44;;;2.48;63.71
23172;BME280;11754;42.664;23.594;2023-01-30T08:31:15;95570.59;;;2.72;63.37
23172;BME280;11754;42.664;23.594;2023-01-30T08:33:41;95553.03;;;2.63;62.87
23172;BME280;11754;42.664;23.594;2023-01-30T08:36:06;95571.41;;;2.73;62.55
23172;BME280;11754;42.664;23.594;2023-01-30T08:38:32;95565.97;;;2.76;62.55
23172;BME280;11754;42.664;23.594;2023-01-30T08:40:58;95568.78;;;2.61;62.24
23172;BME280;11754;42.664;23.594;2023-01-30T08:43:25;95562.59;;;2.51;62.26
23172;BME280;11754;42.664;23.594;2023-01-30T08:45:55;95552.63;;;2.45;62.58
23172;BME280;11754;42.664;23.594;2023-01-30T08:48:21;95533.72;;;2.43;62.76
23172;BME280;11754;42.664;23.594;2023-01-30T08:50:46;95541.09;;;2.60;62.46
23172;BME280;11754;42.664;23.594;2023-01-30T08:53:15;95548.19;;;2.70;62.03
23172;BME280;11754;42.664;23.594;2023-01-30T08:55:42;95543.25;;;2.89;61.85
23172;BME280;11754;42.664;23.594;2023-01-30T08:58:08;95549.41;;;2.99;61.07
23172;BME280;11754;42.664;23.594;2023-01-30T09:00:33;95551.53;;;2.94;60.87
23172;BME280;11754;42.664;23.594;2023-01-30T09:02:59;95551.63;;;2.70;60.86
23172;BME280;11754;42.664;23.594;2023-01-30T09:05:25;95540.56;;;2.44;61.01
23172;BME280;11754;42.664;23.594;2023-01-30T09:07:51;95549.56;;;2.40;61.68
23172;BME280;11754;42.664;23.594;2023-01-30T09:10:17;95541.28;;;2.35;62.55
23172;BME280;11754;42.664;23.594;2023-01-30T09:12:42;95540.13;;;2.50;62.80
23172;BME280;11754;42.664;23.594;2023-01-30T09:15:08;95534.09;;;2.50;61.97
23172;BME280;11754;42.664;23.594;2023-01-30T09:17:34;95540.81;;;2.41;62.01
23172;BME280;11754;42.664;23.594;2023-01-30T09:19:59;95534.88;;;2.28;63.28
23172;BME280;11754;42.664;23.594;2023-01-30T09:22:25;95536.06;;;2.35;63.39
23172;BME280;11754;42.664;23.594;2023-01-30T09:24:50;95525.28;;;2.28;63.45
23172;BME280;11754;42.664;23.594;2023-01-30T09:27:15;95539.72;;;2.32;62.82
23172;BME280;11754;42.664;23.594;2023-01-30T09:29:41;95528.25;;;2.24;63.47
23172;BME280;11754;42.664;23.594;2023-01-30T09:32:06;95521.31;;;2.11;63.66
23172;BME280;11754;42.664;23.594;2023-01-30T09:34:32;95531.47;;;2.38;63.54
23172;BME280;11754;42.664;23.594;2023-01-30T09:36:58;95522.38;;;2.67;63.18
23172;BME280;11754;42.664;23.594;2023-01-30T09:39:28;95515.53;;;2.88;62.12
23172;BME280;11754;42.664;23.594;2023-01-30T09:50:10;95511.38;;;3.19;61.91
23172;BME280;11754;42.664;23.594;2023-01-30T09:55:29;95506.91;;;3.65;60.01
23172;BME280;11754;42.664;23.594;2023-01-30T09:57:56;95501.88;;;3.84;59.80
23172;BME280;11754;42.664;23.594;2023-01-30T10:00:39;95493.31;;;3.93;58.90
23172;BME280;11754;42.664;23.594;2023-01-30T10:10:45;95489.44;;;4.08;57.61
23172;BME280;11754;42.664;23.594;2023-01-30T10:13:41;95467.84;;;4.06;57.62
23172;BME280;11754;42.664;23.594;2023-01-30T10:16:31;95464.97;;;4.09;56.91
23172;BME280;11754;42.664;23.594;2023-01-30T10:19:15;95472.88;;;3.98;57.42
23172;BME280;11754;42.664;23.594;2023-01-30T10:26:53;95440.41;;;4.33;56.16
23172;BME280;11754;42.664;23.594;2023-01-30T10:29:23;95430.22;;;4.30;55.50
23172;BME280;11754;42.664;23.594;2023-01-30T10:32:13;95425.03;;;4.40;55.06
23172;BME280;11754;42.664;23.594;2023-01-30T10:34:44;95431.94;;;4.50;54.77
23172;BME280;11754;42.664;23.594;2023-01-30T10:37:28;95428.16;;;4.54;53.94
23172;BME280;11754;42.664;23.594;2023-01-30T10:40:06;95410.47;;;4.37;53.49
23172;BME280;11754;42.664;23.594;2023-01-30T10:42:43;95413.50;;;4.42;53.92
23172;BME280;11754;42.664;23.594;2023-01-30T10:45:15;95409.16;;;4.52;54.48
23172;BME280;11754;42.664;23.594;2023-01-30T10:50:20;95398.63;;;4.33;54.42
23172;BME280;11754;42.664;23.594;2023-01-30T10:53:01;95386.09;;;4.27;54.35
23172;BME280;11754;42.664;23.594;2023-01-30T11:01:37;95371.22;;;3.97;54.13
23172;BME280;11754;42.664;23.594;2023-01-30T11:04:25;95366.25;;;3.94;55.10
23172;BME280;11754;42.664;23.594;2023-01-30T11:06:54;95352.50;;;3.92;55.15
23172;BME280;11754;42.664;23.594;2023-01-30T11:09:21;95349.50;;;3.96;55.05
23172;BME280;11754;42.664;23.594;2023-01-30T11:11:53;95362.28;;;4.20;54.80
23172;BME280;11754;42.664;23.594;2023-01-30T11:14:19;95350.59;;;4.24;54.75
23172;BME280;11754;42.664;23.594;2023-01-30T11:19:13;95337.16;;;4.29;53.19
23172;BME280;11754;42.664;23.594;2023-01-30T11:21:40;95325.88;;;4.28;52.61
23172;BME280;11754;42.664;23.594;2023-01-30T11:24:15;95316.72;;;4.34;52.63
23172;BME280;11754;42.664;23.594;2023-01-30T11:26:42;95313.91;;;4.16;51.83
23172;BME280;11754;42.664;23.594;2023-01-30T11:31:41;95311.94;;;4.08;52.42
23172;BME280;11754;42.664;23.594;2023-01-30T11:34:15;95320.13;;;3.94;52.72
23172;BME280;11754;42.664;23.594;2023-01-30T11:36:41;95309.59;;;4.05;52.99
23172;BME280;11754;42.664;23.594;2023-01-30T11:41:35;95289.69;;;4.04;53.26
23172;BME280;11754;42.664;23.594;2023-01-30T11:44:03;95283.25;;;4.18;52.76
23172;BME280;11754;42.664;23.594;2023-01-30T11:46:41;95281.75;;;4.16;52.50
23172;BME280;11754;42.664;23.594;2023-01-30T11:49:12;95288.09;;;4.32;52.06
23172;BME280;11754;42.664;23.594;2023-01-30T11:51:38;95278.28;;;4.55;52.21
23172;BME280;11754;42.664;23.594;2023-01-30T11:54:15;95259.75;;;4.58;50.79
23172;BME280;11754;42.664;23.594;2023-01-30T11:56:51;95265.34;;;4.44;50.37
23172;BME280;11754;42.664;23.594;2023-01-30T12:02:02;95256.19;;;4.89;50.07
23172;BME280;11754;42.664;23.594;2023-01-30T12:04:28;95240.66;;;5.06;49.81
23172;BME280;11754;42.664;23.594;2023-01-30T12:07:18;95240.94;;;5.13;49.35
23172;BME280;11754;42.664;23.594;2023-01-30T12:09:45;95233.91;;;5.04;49.30
23172;BME280;11754;42.664;23.594;2023-01-30T12:12:32;95228.28;;;5.09;48.77
23172;BME280;11754;42.664;23.594;2023-01-30T12:15:26;95225.78;;;5.17;48.43
23172;BME280;11754;42.664;23.594;2023-01-30T12:18:22;95224.16;;;5.16;49.09
23172;BME280;11754;42.664;23.594;2023-01-30T12:21:00;95219.59;;;5.08;49.28
23172;BME280;11754;42.664;23.594;2023-01-30T12:23:38;95207.09;;;4.92;49.41
23172;BME280;11754;42.664;23.594;2023-01-30T12:26:20;95216.72;;;4.82;49.69
23172;BME280;11754;42.664;23.594;2023-01-30T12:28:51;95213.13;;;4.64;50.42
23172;BME280;11754;42.664;23.594;2023-01-30T12:34:08;95210.94;;;4.88;49.81
23172;BME280;11754;42.664;23.594;2023-01-30T12:37:16;95211.19;;;5.04;49.78
23172;BME280;11754;42.664;23.594;2023-01-30T12:45:26;95191.97;;;4.86;49.13
23172;BME280;11754;42.664;23.594;2023-01-30T12:53:25;95183.41;;;5.03;49.48
23172;BME280;11754;42.664;23.594;2023-01-30T12:55:59;95178.06;;;5.05;49.27
23172;BME280;11754;42.664;23.594;2023-01-30T12:58:50;95169.97;;;4.89;49.13
23172;BME280;11754;42.664;23.594;2023-01-30T13:01:27;95166.09;;;4.83;49.84
23172;BME280;11754;42.664;23.594;2023-01-30T13:06:41;95164.47;;;4.63;49.45
23172;BME280;11754;42.664;23.594;2023-01-30T13:12:11;95176.84;;;4.80;49.17
23172;BME280;11754;42.664;23.594;2023-01-30T13:14:45;95161.72;;;4.84;48.65
23172;BME280;11754;42.664;23.594;2023-01-30T13:17:36;95163.47;;;5.02;48.90
23172;BME280;11754;42.664;23.594;2023-01-30T13:28:04;95163.50;;;4.93;49.26
23172;BME280;11754;42.664;23.594;2023-01-30T13:30:33;95151.00;;;4.77;49.12
23172;BME280;11754;42.664;23.594;2023-01-30T13:33:08;95156.06;;;4.88;49.82
23172;BME280;11754;42.664;23.594;2023-01-30T13:35:43;95150.84;;;4.88;49.32
23172;BME280;11754;42.664;23.594;2023-01-30T13:38:18;95141.63;;;4.84;49.19
23172;BME280;11754;42.664;23.594;2023-01-30T13:40:46;95140.38;;;4.78;48.96
23172;BME280;11754;42.664;23.594;2023-01-30T13:43:22;95136.16;;;4.48;49.19
23172;BME280;11754;42.664;23.594;2023-01-30T13:45:51;95125.41;;;4.32;49.16
23172;BME280;11754;42.664;23.594;2023-01-30T13:48:52;95132.53;;;4.10;50.45
23172;BME280;11754;42.664;23.594;2023-01-30T13:51:31;95124.81;;;3.99;50.47
23172;BME280;11754;42.664;23.594;2023-01-30T14:07:27;95117.44;;;4.04;51.15
23172;BME280;11754;42.664;23.594;2023-01-30T14:12:43;95124.53;;;3.83;51.76
23172;BME280;11754;42.664;23.594;2023-01-30T14:17:57;95124.94;;;3.88;51.92
23172;BME280;11754;42.664;23.594;2023-01-30T14:20:25;95129.75;;;3.83;51.63
23172;BME280;11754;42.664;23.594;2023-01-30T14:22:59;95125.47;;;3.82;51.59
23172;BME280;11754;42.664;23.594;2023-01-30T14:28:36;95120.53;;;3.79;51.88
23172;BME280;11754;42.664;23.594;2023-01-30T14:38:40;95119.94;;;3.66;52.05
23172;BME280;11754;42.664;23.594;2023-01-30T14:54:20;95117.09;;;3.07;53.40
23172;BME280;11754;42.664;23.594;2023-01-30T14:59:49;95115.75;;;2.92;54.02
23172;BME280;11754;42.664;23.594;2023-01-30T15:02:22;95108.91;;;2.91;53.71
23172;BME280;11754;42.664;23.594;2023-01-30T15:05:11;95113.22;;;2.81;54.16
23172;BME280;11754;42.664;23.594;2023-01-30T15:07:50;95101.72;;;2.62;54.45
23172;BME280;11754;42.664;23.594;2023-01-30T15:32:20;95104.16;;;1.90;56.17
23172;BME280;11754;42.664;23.594;2023-01-30T15:34:54;95111.28;;;1.88;56.51
23172;BME280;11754;42.664;23.594;2023-01-30T15:37:39;95108.91;;;1.85;55.68
23172;BME280;11754;42.664;23.594;2023-01-30T15:42:47;95118.16;;;1.66;56.39
23172;BME280;11754;42.664;23.594;2023-01-30T15:47:56;95106.84;;;1.56;56.42
23172;BME280;11754;42.664;23.594;2023-01-30T15:50:26;95114.66;;;1.34;56.30
23172;BME280;11754;42.664;23.594;2023-01-30T15:52:51;95115.00;;;1.29;57.40
23172;BME280;11754;42.664;23.594;2023-01-30T15:55:29;95117.38;;;1.21;57.58
23172;BME280;11754;42.664;23.594;2023-01-30T15:57:58;95097.41;;;0.99;57.63
23172;BME280;11754;42.664;23.594;2023-01-30T16:00:32;95110.03;;;0.92;57.99
23172;BME280;11754;42.664;23.594;2023-01-30T16:03:01;95107.78;;;0.77;58.54